Time;durP1;ratioP1;P1;durP2;ratioP2;P2;SDS_P1;SDS_P2;PMS_P1;PMS_P2;Temp;Humidity;BMP_temperature;BMP_pressure;BME280_temperature;BME280_humidity;BME280_pressure;Samples;Min_cycle;Max_cycle;Signal;HPM_P1;HPM_P2
2021/08/07 00:01:26;;;;;;;8.43;3.33;;;16.70;99.90;;;;;;5066655;28;20486;-68
2021/08/07 00:03:53;;;;;;;6.70;2.45;;;16.70;99.90;;;;;;5066460;28;20421;-68
2021/08/07 00:06:19;;;;;;;7.43;2.75;;;16.70;99.90;;;;;;5066400;28;20554;-68
2021/08/07 00:08:45;;;;;;;5.15;2.70;;;16.70;99.90;;;;;;5065134;28;20028;-68
2021/08/07 00:11:11;;;;;;;8.63;2.40;;;16.70;99.90;;;;;;5066060;28;20399;-68
2021/08/07 00:13:43;;;;;;;8.27;2.80;;;16.70;99.90;;;;;;5066398;28;20033;-68
2021/08/07 00:16:08;;;;;;;4.78;2.65;;;16.70;99.90;;;;;;5067019;28;20055;-68
2021/08/07 00:18:34;;;;;;;7.15;2.40;;;16.70;99.90;;;;;;5065611;28;20040;-68
2021/08/07 00:21:00;;;;;;;6.43;2.33;;;16.70;99.90;;;;;;5065039;28;20059;-68
2021/08/07 00:23:25;;;;;;;5.28;2.72;;;16.70;99.90;;;;;;5065991;28;20037;-68
2021/08/07 00:25:51;;;;;;;4.90;2.88;;;16.70;99.90;;;;;;5065190;28;20036;-68
2021/08/07 00:28:17;;;;;;;5.43;2.72;;;16.70;99.90;;;;;;5065308;28;20036;-68
2021/08/07 00:30:42;;;;;;;10.27;2.90;;;16.70;99.90;;;;;;5066991;28;20036;-68
2021/08/07 00:33:08;;;;;;;6.05;2.65;;;16.70;99.90;;;;;;5065531;28;20068;-68
2021/08/07 00:35:33;;;;;;;6.97;2.95;;;16.70;99.90;;;;;;5066139;28;20032;-68
2021/08/07 00:37:59;;;;;;;4.32;2.30;;;16.70;99.90;;;;;;5066735;28;20067;-68
2021/08/07 00:40:25;;;;;;;4.38;2.17;;;16.70;99.90;;;;;;5064062;28;20040;-68
2021/08/07 00:42:51;;;;;;;5.85;3.28;;;16.70;99.90;;;;;;5066165;28;20037;-68
2021/08/07 00:45:16;;;;;;;6.78;2.95;;;16.70;99.90;;;;;;5065533;28;20076;-68
2021/08/07 00:47:42;;;;;;;7.93;2.75;;;16.70;99.90;;;;;;5066012;28;20048;-68
2021/08/07 00:50:10;;;;;;;5.80;3.03;;;16.60;99.90;;;;;;5066254;28;20441;-68
2021/08/07 00:52:36;;;;;;;5.38;2.40;;;16.70;99.90;;;;;;5066963;28;20032;-68
2021/08/07 00:55:03;;;;;;;11.07;2.83;;;16.60;99.90;;;;;;5065310;28;20154;-68
2021/08/07 00:57:30;;;;;;;5.15;2.65;;;16.60;99.90;;;;;;5065611;28;20463;-68
2021/08/07 00:59:55;;;;;;;3.67;1.88;;;16.60;99.90;;;;;;5065714;28;20536;-68
2021/08/07 01:02:24;;;;;;;9.48;2.45;;;16.60;99.90;;;;;;5065685;28;20029;-68
2021/08/07 01:05:15;;;;;;;4.65;1.65;;;16.60;99.90;;;;;;5065023;28;20445;-68
2021/08/07 01:08:15;;;;;;;9.77;2.42;;;16.60;99.90;;;;;;5065026;28;20036;-68
2021/08/07 01:11:03;;;;;;;6.82;2.15;;;16.60;99.90;;;;;;5064964;28;20039;-68
2021/08/07 01:13:35;;;;;;;3.97;1.60;;;16.60;99.90;;;;;;5064804;28;20048;-68
2021/08/07 01:16:21;;;;;;;4.68;1.33;;;16.50;99.90;;;;;;5065388;28;20033;-67
2021/08/07 01:18:50;;;;;;;7.07;2.53;;;16.50;99.90;;;;;;5066079;28;20047;-68
2021/08/07 01:21:20;;;;;;;5.50;1.42;;;16.50;99.90;;;;;;5062823;28;20045;-68
2021/08/07 01:23:51;;;;;;;5.00;1.85;;;16.50;99.90;;;;;;5064877;28;20028;-68
2021/08/07 01:26:22;;;;;;;3.72;1.40;;;16.50;99.90;;;;;;5064211;28;20044;-68
2021/08/07 01:28:51;;;;;;;6.15;1.52;;;16.50;99.90;;;;;;5065054;28;20060;-68
2021/08/07 01:31:19;;;;;;;9.02;1.70;;;16.50;99.90;;;;;;5063543;28;20746;-68
2021/08/07 01:33:46;;;;;;;6.35;1.67;;;16.40;99.90;;;;;;5064964;28;20036;-68
2021/08/07 01:36:14;;;;;;;5.90;1.92;;;16.40;99.90;;;;;;5064900;28;20043;-68
2021/08/07 01:38:44;;;;;;;4.10;1.60;;;16.40;99.90;;;;;;5063262;28;20079;-68
2021/08/07 01:41:20;;;;;;;4.80;1.70;;;16.40;99.90;;;;;;5064211;28;20040;-68
2021/08/07 01:43:47;;;;;;;5.70;1.58;;;16.40;99.90;;;;;;5063727;28;20040;-68
2021/08/07 01:46:15;;;;;;;6.57;1.70;;;16.40;99.90;;;;;;5064875;28;20127;-68
2021/08/07 01:48:55;;;;;;;5.40;1.75;;;16.40;99.90;;;;;;5065232;28;20036;-68
2021/08/07 01:51:25;;;;;;;4.90;1.67;;;16.40;99.90;;;;;;5063242;28;20079;-68
2021/08/07 01:53:54;;;;;;;8.52;1.63;;;16.30;99.90;;;;;;5064370;28;20040;-68
2021/08/07 01:56:28;;;;;;;5.75;2.13;;;16.40;99.90;;;;;;5064478;28;20430;-68
2021/08/07 01:59:04;;;;;;;5.15;1.30;;;16.30;99.90;;;;;;5078301;28;20041;-68
2021/08/07 02:01:31;;;;;;;8.52;2.53;;;16.30;99.90;;;;;;5063403;28;20040;-68
2021/08/07 02:04:01;;;;;;;6.20;1.65;;;16.30;99.90;;;;;;5064888;28;20071;-68
2021/08/07 02:06:30;;;;;;;4.82;1.33;;;16.30;99.90;;;;;;5063633;28;20048;-68
2021/08/07 02:08:57;;;;;;;4.18;1.20;;;16.30;99.90;;;;;;5064194;28;20125;-68
2021/08/07 02:11:24;;;;;;;4.63;1.30;;;16.30;99.90;;;;;;5063549;28;20185;-68
2021/08/07 02:13:50;;;;;;;3.00;1.10;;;16.20;99.90;;;;;;5063013;28;20537;-68
2021/08/07 02:16:18;;;;;;;4.15;1.88;;;16.20;99.90;;;;;;5061967;28;20482;-68
2021/08/07 02:18:45;;;;;;;4.70;1.38;;;16.20;99.90;;;;;;5064422;28;20069;-68
2021/08/07 02:21:12;;;;;;;3.72;1.13;;;16.10;99.90;;;;;;5064480;28;20411;-68
2021/08/07 02:23:38;;;;;;;5.47;1.30;;;16.10;99.90;;;;;;5062362;28;20037;-68
2021/08/07 02:26:06;;;;;;;11.05;1.80;;;16.00;99.90;;;;;;5063476;28;20042;-68
2021/08/07 02:28:32;;;;;;;4.07;1.58;;;16.00;99.90;;;;;;5064128;28;20518;-68
2021/08/07 02:30:59;;;;;;;3.92;1.27;;;16.00;99.90;;;;;;5065721;28;20071;-68
2021/08/07 02:33:26;;;;;;;4.10;1.10;;;16.00;99.90;;;;;;5068024;28;20048;-68
2021/08/07 02:35:54;;;;;;;4.78;1.45;;;15.90;99.90;;;;;;5065226;28;20085;-68
2021/08/07 02:38:22;;;;;;;6.75;1.20;;;15.90;99.90;;;;;;5067411;28;20048;-68
2021/08/07 02:40:48;;;;;;;5.97;1.80;;;15.90;99.90;;;;;;5067651;28;20037;-68
2021/08/07 02:43:16;;;;;;;5.03;1.13;;;15.90;99.90;;;;;;5065807;28;20063;-67
2021/08/07 02:45:43;;;;;;;5.50;1.30;;;15.90;99.90;;;;;;5065290;28;20482;-68
2021/08/07 02:48:10;;;;;;;5.88;1.90;;;15.90;99.90;;;;;;5067751;28;20135;-68
2021/08/07 02:50:39;;;;;;;6.53;1.35;;;15.90;99.90;;;;;;5067403;28;20134;-67
2021/08/07 02:53:05;;;;;;;7.03;1.50;;;15.90;99.90;;;;;;5067523;28;20119;-67
2021/08/07 02:55:31;;;;;;;5.57;1.73;;;15.90;99.90;;;;;;5064073;28;20457;-67
2021/08/07 02:57:57;;;;;;;3.58;1.08;;;15.90;99.90;;;;;;5066618;28;20055;-67
2021/08/07 03:00:23;;;;;;;4.90;1.42;;;15.90;99.90;;;;;;5066636;28;20036;-68
2021/08/07 03:02:49;;;;;;;8.48;1.90;;;15.90;99.90;;;;;;5067916;28;20493;-68
2021/08/07 03:05:15;;;;;;;6.97;1.45;;;15.90;99.90;;;;;;5067379;28;20041;-68
2021/08/07 03:07:41;;;;;;;6.68;2.35;;;15.90;99.90;;;;;;5065042;28;20043;-68
2021/08/07 03:10:09;;;;;;;4.75;1.65;;;15.90;99.90;;;;;;5068193;28;20057;-68
2021/08/07 03:12:35;;;;;;;5.97;1.80;;;15.90;99.90;;;;;;5065537;28;20135;-68
2021/08/07 03:15:01;;;;;;;5.25;1.50;;;15.90;99.90;;;;;;5067783;28;20037;-67
2021/08/07 03:17:27;;;;;;;5.63;1.58;;;15.90;99.90;;;;;;5069903;28;20482;-67
2021/08/07 03:19:52;;;;;;;6.25;1.45;;;15.80;99.90;;;;;;5069393;28;20561;-68
2021/08/07 03:22:18;;;;;;;4.85;1.38;;;15.90;99.90;;;;;;5072108;28;20109;-68
2021/08/07 03:24:45;;;;;;;5.53;1.48;;;15.80;99.90;;;;;;5068765;28;20609;-68
2021/08/07 03:27:11;;;;;;;6.72;1.50;;;15.80;99.90;;;;;;5071399;28;20132;-68
2021/08/07 03:29:37;;;;;;;4.20;1.50;;;15.80;99.90;;;;;;5070967;28;20131;-68
2021/08/07 03:32:14;;;;;;;7.63;2.05;;;15.80;99.90;;;;;;5070081;28;20101;-68
2021/08/07 03:34:40;;;;;;;4.18;1.73;;;15.70;99.90;;;;;;5070581;28;20041;-68
2021/08/07 03:37:07;;;;;;;6.40;1.67;;;15.70;99.90;;;;;;5070218;28;20034;-68
2021/08/07 03:39:33;;;;;;;5.68;1.55;;;15.60;99.90;;;;;;5063759;28;20040;-68
2021/08/07 03:41:59;;;;;;;4.20;1.52;;;15.60;99.90;;;;;;5069198;28;20380;-68
2021/08/07 03:44:25;;;;;;;9.30;1.40;;;15.50;99.90;;;;;;5066758;28;20041;-68
2021/08/07 03:46:51;;;;;;;6.38;1.95;;;15.50;99.90;;;;;;5071933;28;20043;-68
2021/08/07 03:49:17;;;;;;;7.53;1.92;;;15.50;99.90;;;;;;5068774;28;20391;-68
2021/08/07 03:51:44;;;;;;;6.60;1.85;;;15.40;99.90;;;;;;5069675;28;20048;-68
2021/08/07 03:54:09;;;;;;;5.75;1.80;;;15.40;99.90;;;;;;5064697;28;20037;-68
2021/08/07 03:56:35;;;;;;;7.13;1.70;;;15.40;99.90;;;;;;5068460;28;20040;-68
2021/08/07 03:59:00;;;;;;;8.00;2.45;;;15.30;99.90;;;;;;5070536;28;20040;-68
2021/08/07 04:01:26;;;;;;;7.88;2.70;;;15.30;99.90;;;;;;5069834;28;20047;-68
2021/08/07 04:03:52;;;;;;;7.35;2.05;;;15.30;99.90;;;;;;5071180;28;20036;-68
2021/08/07 04:06:17;;;;;;;5.53;2.13;;;15.30;99.90;;;;;;5067155;28;20062;-68
2021/08/07 04:08:43;;;;;;;6.93;2.63;;;15.20;99.90;;;;;;5069821;28;20051;-68
2021/08/07 04:11:08;;;;;;;9.77;2.28;;;15.20;99.90;;;;;;5071126;28;20068;-68
2021/08/07 04:13:34;;;;;;;9.63;2.40;;;15.20;99.90;;;;;;5068908;28;20082;-67
2021/08/07 04:16:00;;;;;;;8.18;1.80;;;15.20;99.90;;;;;;5070292;28;20032;-68
2021/08/07 04:18:25;;;;;;;7.78;2.10;;;15.20;99.90;;;;;;5069582;28;20114;-68
2021/08/07 04:20:52;;;;;;;9.15;1.77;;;15.10;99.90;;;;;;5070369;28;20041;-68
2021/08/07 04:23:18;;;;;;;8.82;2.25;;;15.10;99.90;;;;;;5069644;28;20123;-68
2021/08/07 04:25:44;;;;;;;9.88;2.35;;;15.10;99.90;;;;;;5067570;28;20161;-68
2021/08/07 04:28:10;;;;;;;4.47;2.00;;;15.10;99.90;;;;;;5069558;28;20088;-68
2021/08/07 04:30:35;;;;;;;8.02;2.50;;;15.10;99.90;;;;;;5069365;28;20040;-68
2021/08/07 04:33:01;;;;;;;8.38;2.95;;;15.10;99.90;;;;;;5069683;28;20036;-68
2021/08/07 04:35:27;;;;;;;5.80;2.05;;;15.00;99.90;;;;;;5065843;28;20035;-68
2021/08/07 04:37:55;;;;;;;5.80;1.90;;;15.00;99.90;;;;;;5068549;28;20150;-68
2021/08/07 04:40:23;;;;;;;10.73;2.08;;;15.00;99.90;;;;;;5069878;28;20054;-68
2021/08/07 04:42:48;;;;;;;9.90;2.72;;;15.00;99.90;;;;;;5066556;28;20029;-68
2021/08/07 04:45:17;;;;;;;7.10;1.90;;;15.10;99.90;;;;;;5069704;28;20051;-68
2021/08/07 04:47:57;;;;;;;8.98;1.75;;;15.00;99.90;;;;;;5068763;28;20041;-68
2021/08/07 04:50:26;;;;;;;11.02;2.35;;;15.10;99.90;;;;;;5067983;28;20032;-68
2021/08/07 04:52:53;;;;;;;6.05;1.83;;;15.10;99.90;;;;;;5068961;28;20036;-68
2021/08/07 04:55:19;;;;;;;8.30;2.47;;;15.30;99.90;;;;;;5068109;28;20097;-68
2021/08/07 04:57:44;;;;;;;6.22;2.30;;;15.30;99.90;;;;;;5069713;28;20440;-68
2021/08/07 05:00:11;;;;;;;6.75;1.75;;;15.40;99.90;;;;;;5069795;28;20036;-68
2021/08/07 05:02:37;;;;;;;9.60;2.78;;;15.40;99.90;;;;;;5068315;28;20041;-68
2021/08/07 05:05:03;;;;;;;6.38;2.10;;;15.40;99.90;;;;;;5069165;28;20042;-68
2021/08/07 05:07:31;;;;;;;9.18;2.22;;;15.40;99.90;;;;;;5066836;28;20098;-68
2021/08/07 05:09:57;;;;;;;6.78;2.35;;;15.50;99.90;;;;;;5070850;28;20040;-68
2021/08/07 05:12:24;;;;;;;6.88;2.20;;;15.60;99.90;;;;;;5067608;28;20155;-68
2021/08/07 05:14:50;;;;;;;7.53;2.80;;;15.70;99.90;;;;;;5063905;28;20032;-68
2021/08/07 05:17:15;;;;;;;8.40;1.80;;;16.00;99.90;;;;;;5066136;28;20488;-68
2021/08/07 05:19:41;;;;;;;13.63;2.25;;;16.70;99.90;;;;;;5065733;28;20051;-68
2021/08/07 05:22:06;;;;;;;7.93;3.10;;;17.20;99.90;;;;;;5065012;28;20048;-68
2021/08/07 05:24:32;;;;;;;7.47;1.55;;;18.10;99.90;;;;;;5064814;28;20048;-68
2021/08/07 05:26:58;;;;;;;8.95;2.63;;;19.40;99.90;;;;;;5065764;28;20036;-68
2021/08/07 05:29:23;;;;;;;6.05;1.60;;;20.70;99.90;;;;;;5065733;28;20041;-68
2021/08/07 05:31:49;;;;;;;6.53;2.00;;;21.40;99.90;;;;;;5064441;28;20036;-67
2021/08/07 05:34:14;;;;;;;5.80;1.38;;;22.10;99.90;;;;;;5063628;28;20398;-68
2021/08/07 05:36:40;;;;;;;4.05;1.65;;;22.20;99.90;;;;;;5065362;28;20037;-68
2021/08/07 05:39:06;;;;;;;7.60;1.65;;;22.80;99.90;;;;;;5064684;28;20055;-68
2021/08/07 05:41:31;;;;;;;6.43;1.75;;;23.80;96.90;;;;;;5064129;28;20458;-68
2021/08/07 05:43:57;;;;;;;6.40;1.48;;;24.90;95.80;;;;;;5063931;28;20402;-68
2021/08/07 05:46:23;;;;;;;7.38;2.28;;;26.00;92.70;;;;;;5064119;28;20028;-68
2021/08/07 05:48:54;;;;;;;5.53;1.88;;;26.70;87.90;;;;;;5064814;28;20406;-68
2021/08/07 05:51:19;;;;;;;6.88;1.52;;;26.70;83.70;;;;;;5064237;28;20032;-68
2021/08/07 05:53:46;;;;;;;7.55;1.83;;;25.70;85.80;;;;;;5065378;28;20487;-68
2021/08/07 05:56:11;;;;;;;5.50;1.73;;;24.90;90.10;;;;;;5064912;28;20040;-68
2021/08/07 05:58:37;;;;;;;8.98;2.55;;;24.30;92.30;;;;;;5066274;28;20094;-68
2021/08/07 06:01:07;;;;;;;7.25;1.77;;;23.80;93.80;;;;;;5064347;28;20477;-68
2021/08/07 06:03:33;;;;;;;6.03;1.88;;;24.60;94.00;;;;;;5064959;28;20087;-68
2021/08/07 06:05:59;;;;;;;5.65;1.60;;;25.70;91.60;;;;;;5064964;28;20043;-68
2021/08/07 06:08:25;;;;;;;6.20;2.00;;;25.40;89.80;;;;;;5064798;28;20037;-68
2021/08/07 06:10:51;;;;;;;7.55;2.63;;;24.40;90.60;;;;;;5065501;28;20040;-68
2021/08/07 06:13:16;;;;;;;6.70;1.50;;;23.40;93.50;;;;;;5062115;28;20060;-67
2021/08/07 06:15:42;;;;;;;5.82;1.73;;;22.60;96.30;;;;;;5064783;28;20053;-68
2021/08/07 06:18:08;;;;;;;5.72;2.10;;;22.20;97.90;;;;;;5063140;28;20048;-67
2021/08/07 06:20:34;;;;;;;7.28;2.60;;;21.60;99.30;;;;;;5064113;28;20048;-68
2021/08/07 06:23:00;;;;;;;8.13;1.98;;;21.00;99.90;;;;;;5064637;28;20055;-68
2021/08/07 06:25:26;;;;;;;7.60;2.00;;;20.40;99.90;;;;;;5065230;28;20044;-68
2021/08/07 06:27:54;;;;;;;9.80;2.42;;;20.00;99.90;;;;;;5065398;28;20059;-68
2021/08/07 06:30:21;;;;;;;4.75;1.88;;;19.60;99.90;;;;;;5062692;28;20041;-68
2021/08/07 06:32:46;;;;;;;8.10;2.33;;;19.20;99.90;;;;;;5064396;28;20072;-68
2021/08/07 06:35:12;;;;;;;7.65;2.30;;;19.00;99.90;;;;;;5063945;28;20121;-68
2021/08/07 06:37:38;;;;;;;6.78;2.03;;;18.70;99.90;;;;;;5137982;22;20136;-68
2021/08/07 06:40:04;;;;;;;8.32;2.28;;;18.60;99.90;;;;;;5038392;28;20041;-68
2021/08/07 06:42:30;;;;;;;12.55;2.60;;;18.40;99.90;;;;;;5037462;28;20041;-68
2021/08/07 06:44:56;;;;;;;6.40;2.45;;;18.30;99.90;;;;;;5040020;28;20605;-68
2021/08/07 06:47:22;;;;;;;7.45;1.90;;;18.30;99.90;;;;;;5035727;28;20041;-68
2021/08/07 06:49:47;;;;;;;9.48;2.28;;;18.10;99.90;;;;;;5033630;28;20033;-68
2021/08/07 06:52:13;;;;;;;7.22;2.25;;;18.10;99.90;;;;;;5040302;28;20041;-68
2021/08/07 06:54:40;;;;;;;8.88;2.42;;;18.00;99.90;;;;;;5044923;28;20041;-68
2021/08/07 06:57:06;;;;;;;7.15;2.22;;;17.90;99.90;;;;;;5046225;28;20036;-68
2021/08/07 06:59:32;;;;;;;6.68;1.80;;;17.90;99.90;;;;;;5041465;28;20053;-68
2021/08/07 07:01:57;;;;;;;8.02;2.63;;;17.90;99.90;;;;;;5043486;28;20506;-68
2021/08/07 07:04:23;;;;;;;5.05;1.55;;;17.90;99.90;;;;;;5042771;28;20906;-68
2021/08/07 07:06:49;;;;;;;10.52;2.22;;;18.00;99.90;;;;;;5043392;28;20041;-68
2021/08/07 07:09:15;;;;;;;4.15;2.00;;;18.00;99.90;;;;;;5038526;28;20556;-68
2021/08/07 07:11:40;;;;;;;4.80;1.40;;;18.20;99.90;;;;;;5040891;28;20045;-68
2021/08/07 07:14:06;;;;;;;7.70;2.10;;;18.60;99.90;;;;;;5038686;28;20033;-68
2021/08/07 07:16:32;;;;;;;6.93;2.08;;;19.20;99.90;;;;;;5040003;28;20165;-68
2021/08/07 07:18:58;;;;;;;8.00;1.52;;;19.70;99.90;;;;;;5039886;28;20179;-68
2021/08/07 07:21:24;;;;;;;8.50;1.80;;;20.10;99.90;;;;;;5040700;28;20126;-68
2021/08/07 07:23:50;;;;;;;9.65;2.20;;;20.20;99.90;;;;;;5039058;28;20072;-68
2021/08/07 07:29:39;;;;;;;7.53;2.38;;;20.10;99.90;;;;;;5041655;28;20106;-68
2021/08/07 07:32:06;;;;;;;5.75;1.73;;;19.90;99.90;;;;;;5043683;28;20482;-70
2021/08/07 07:34:31;;;;;;;6.95;1.58;;;19.90;99.90;;;;;;5040993;28;20087;-70
2021/08/07 07:36:57;;;;;;;7.18;2.10;;;19.80;99.90;;;;;;5038347;28;20033;-70
2021/08/07 07:39:23;;;;;;;8.43;2.00;;;19.80;99.90;;;;;;5041701;28;20868;-70
2021/08/07 07:41:49;;;;;;;9.77;2.17;;;19.70;99.90;;;;;;5041144;28;20033;-70
2021/08/07 07:44:14;;;;;;;11.23;1.52;;;19.70;99.90;;;;;;5040338;28;20064;-70
2021/08/07 07:46:40;;;;;;;9.75;1.75;;;19.50;99.90;;;;;;5036852;28;20044;-70
2021/08/07 07:49:06;;;;;;;4.07;1.23;;;19.50;99.90;;;;;;5038186;28;20045;-70
2021/08/07 07:51:31;;;;;;;5.60;1.33;;;19.50;99.90;;;;;;5043702;28;20048;-70
2021/08/07 07:53:57;;;;;;;5.72;1.63;;;19.50;99.90;;;;;;5039958;28;20037;-69
2021/08/07 07:56:24;;;;;;;6.32;1.35;;;19.50;99.90;;;;;;5039733;28;20052;-69
2021/08/07 07:58:50;;;;;;;9.10;1.88;;;19.50;99.90;;;;;;5042449;28;20045;-70
2021/08/07 08:01:16;;;;;;;7.78;1.95;;;19.60;99.90;;;;;;5042399;28;20502;-70
2021/08/07 08:03:42;;;;;;;6.68;1.85;;;19.60;99.90;;;;;;5036419;28;20036;-70
2021/08/07 08:06:07;;;;;;;7.05;1.70;;;19.60;99.90;;;;;;5039823;28;20488;-70
2021/08/07 08:08:34;;;;;;;6.82;1.70;;;19.80;99.90;;;;;;5042368;28;20063;-70
2021/08/07 08:10:59;;;;;;;6.57;1.45;;;19.90;99.90;;;;;;5042236;28;20041;-70
2021/08/07 08:13:25;;;;;;;4.80;1.15;;;20.20;99.90;;;;;;5040217;28;20037;-70
2021/08/07 08:15:50;;;;;;;7.97;1.98;;;20.50;99.90;;;;;;5037782;28;20132;-70
2021/08/07 08:18:16;;;;;;;6.88;1.20;;;20.80;99.90;;;;;;5041934;28;20045;-70
2021/08/07 08:20:42;;;;;;;5.22;1.08;;;21.10;99.90;;;;;;5040792;28;20043;-70
2021/08/07 08:23:08;;;;;;;4.38;1.10;;;21.30;99.90;;;;;;5040694;28;20040;-70
2021/08/07 08:25:34;;;;;;;2.42;0.80;;;21.40;99.90;;;;;;5039564;28;20072;-70
2021/08/07 08:27:59;;;;;;;5.07;1.27;;;21.40;99.90;;;;;;5040969;28;20051;-70
2021/08/07 08:30:26;;;;;;;5.68;1.10;;;21.30;99.90;;;;;;5040333;28;20475;-70
2021/08/07 08:32:53;;;;;;;7.20;2.00;;;21.30;99.90;;;;;;5039710;28;20470;-70
2021/08/07 08:35:19;;;;;;;5.25;1.48;;;21.40;99.90;;;;;;5039767;28;20044;-70
2021/08/07 08:37:44;;;;;;;9.18;1.63;;;21.50;99.90;;;;;;5038897;28;20033;-70
2021/08/07 08:40:10;;;;;;;15.75;2.00;;;21.70;99.90;;;;;;5040823;28;20048;-70
2021/08/07 08:42:36;;;;;;;16.55;1.48;;;21.90;99.50;;;;;;5040680;28;20047;-70
2021/08/07 08:45:04;;;;;;;4.72;0.68;;;22.00;98.90;;;;;;5039409;28;20037;-70
2021/08/07 08:47:30;;;;;;;3.92;1.00;;;22.10;98.50;;;;;;5038704;28;20041;-70
2021/08/07 08:49:55;;;;;;;3.35;0.98;;;22.20;98.70;;;;;;5040773;28;20124;-70
2021/08/07 08:52:28;;;;;;;2.35;0.80;;;22.40;99.10;;;;;;5040703;28;20116;-70
2021/08/07 08:54:54;;;;;;;2.90;0.60;;;22.60;97.50;;;;;;5041105;28;20108;-70
2021/08/07 08:57:21;;;;;;;3.65;1.13;;;22.70;97.20;;;;;;5040313;28;20037;-70
2021/08/07 08:59:47;;;;;;;5.07;1.15;;;22.60;95.80;;;;;;5039295;28;20033;-70
2021/08/07 09:02:13;;;;;;;3.85;1.35;;;22.80;96.60;;;;;;5039568;28;20029;-70
2021/08/07 09:04:39;;;;;;;5.25;0.82;;;22.80;96.30;;;;;;5037963;28;20040;-70
2021/08/07 09:07:05;;;;;;;2.75;0.57;;;22.90;94.80;;;;;;5041569;28;20253;-70
2021/08/07 09:09:57;;;;;;;4.45;0.80;;;23.00;94.60;;;;;;5039386;28;20504;-70
2021/08/07 09:12:37;;;;;;;3.85;0.52;;;23.10;94.30;;;;;;5039027;28;20049;-70
2021/08/07 09:15:03;;;;;;;2.88;0.57;;;23.10;92.70;;;;;;5041928;28;20124;-70
2021/08/07 09:17:29;;;;;;;3.53;0.95;;;23.10;93.80;;;;;;5040222;28;20101;-70
2021/08/07 09:19:57;;;;;;;3.53;0.80;;;23.20;94.10;;;;;;5042014;28;20482;-70
2021/08/07 09:22:29;;;;;;;2.83;0.88;;;23.30;94.00;;;;;;5038765;28;20037;-70
2021/08/07 09:25:12;;;;;;;2.22;0.50;;;23.40;93.70;;;;;;5036429;28;20034;-70
2021/08/07 09:27:48;;;;;;;33.42;2.95;;;23.30;92.80;;;;;;5038667;28;20422;-70
2021/08/07 09:30:16;;;;;;;3.22;0.68;;;23.20;92.50;;;;;;5041233;28;20419;-70
2021/08/07 09:32:46;;;;;;;6.50;1.15;;;23.00;92.90;;;;;;5041244;28;20036;-70
2021/08/07 09:35:15;;;;;;;6.55;0.52;;;22.80;93.90;;;;;;5041016;28;20096;-70
2021/08/07 09:37:41;;;;;;;3.88;0.82;;;22.60;93.80;;;;;;5043201;28;20040;-70
2021/08/07 09:40:10;;;;;;;5.65;0.40;;;22.40;93.70;;;;;;5039578;28;20045;-69
2021/08/07 09:42:53;;;;;;;8.52;1.00;;;22.30;94.70;;;;;;5040801;28;20048;-69
2021/08/07 09:45:24;;;;;;;2.35;0.47;;;22.30;96.40;;;;;;5038311;28;20078;-69
2021/08/07 09:48:01;;;;;;;2.95;0.50;;;22.30;95.30;;;;;;5036520;28;20041;-69
2021/08/07 09:50:29;;;;;;;1.20;0.32;;;22.30;95.00;;;;;;5036441;28;20034;-69
2021/08/07 09:52:56;;;;;;;3.35;0.60;;;22.50;94.90;;;;;;5042280;28;20037;-69
2021/08/07 09:55:22;;;;;;;4.60;0.60;;;22.50;95.40;;;;;;5039439;28;20037;-69
2021/08/07 09:58:02;;;;;;;7.35;0.77;;;22.70;95.10;;;;;;5036867;28;20095;-69
2021/08/07 10:00:34;;;;;;;4.15;0.40;;;22.80;95.10;;;;;;5037922;28;20045;-69
2021/08/07 10:03:14;;;;;;;1.77;0.40;;;23.00;95.50;;;;;;5039781;28;20110;-69
2021/08/07 10:05:39;;;;;;;3.28;0.55;;;23.00;95.40;;;;;;5038942;28;20063;-69
2021/08/07 10:08:07;;;;;;;3.92;0.60;;;23.10;94.40;;;;;;5038374;28;20576;-69
2021/08/07 10:10:33;;;;;;;3.15;0.68;;;22.90;94.30;;;;;;5040243;28;20395;-69
2021/08/07 10:13:00;;;;;;;4.45;0.70;;;23.10;96.60;;;;;;5040269;28;20037;-69
2021/08/07 10:15:26;;;;;;;3.90;0.70;;;23.20;95.80;;;;;;5040537;28;20480;-69
2021/08/07 10:17:54;;;;;;;2.92;0.70;;;23.60;95.50;;;;;;5036557;28;20106;-69
2021/08/07 10:20:20;;;;;;;2.00;0.55;;;23.60;94.40;;;;;;5036752;28;20041;-70
2021/08/07 10:22:46;;;;;;;4.40;0.90;;;23.70;94.70;;;;;;5037981;28;20033;-69
2021/08/07 10:25:13;;;;;;;1.65;0.50;;;23.80;93.90;;;;;;5041003;28;20714;-69
2021/08/07 10:27:40;;;;;;;1.83;0.50;;;23.50;92.60;;;;;;5044333;28;20048;-69
2021/08/07 10:30:11;;;;;;;2.83;0.73;;;23.50;94.00;;;;;;5041654;28;20041;-69
2021/08/07 10:32:43;;;;;;;3.42;0.60;;;23.70;94.30;;;;;;5044534;28;20120;-69
2021/08/07 10:35:11;;;;;;;1.92;0.40;;;23.80;92.40;;;;;;5042992;28;20033;-69
2021/08/07 10:37:39;;;;;;;4.20;0.70;;;23.80;93.00;;;;;;5043596;28;20398;-69
2021/08/07 10:40:06;;;;;;;3.42;0.88;;;23.80;93.70;;;;;;5042780;28;20040;-69
2021/08/07 10:42:33;;;;;;;3.47;0.77;;;23.80;93.90;;;;;;5041289;28;20044;-69
2021/08/07 10:45:01;;;;;;;4.25;0.50;;;23.80;92.10;;;;;;5041896;28;20135;-69
2021/08/07 10:47:42;;;;;;;6.47;0.70;;;23.90;92.30;;;;;;5041904;28;20501;-69
2021/08/07 10:50:28;;;;;;;3.97;0.63;;;24.00;92.60;;;;;;5041409;28;20048;-69
2021/08/07 10:53:00;;;;;;;2.83;0.75;;;24.20;92.30;;;;;;5045437;28;20037;-69
2021/08/07 10:55:44;;;;;;;2.80;1.13;;;24.00;91.00;;;;;;5044650;28;20055;-69
2021/08/07 10:58:44;;;;;;;3.13;0.68;;;24.00;92.10;;;;;;5042193;28;20053;-69
2021/08/07 11:01:21;;;;;;;3.33;0.60;;;24.00;91.40;;;;;;5042012;28;20037;-69
2021/08/07 11:04:03;;;;;;;2.78;0.52;;;23.90;93.80;;;;;;5041197;28;20040;-69
2021/08/07 11:06:37;;;;;;;2.97;0.55;;;23.70;91.60;;;;;;5041953;28;20033;-69
2021/08/07 11:09:21;;;;;;;1.15;0.35;;;23.80;90.80;;;;;;5041071;28;20041;-69
2021/08/07 11:11:49;;;;;;;3.55;0.50;;;23.90;90.40;;;;;;5039850;28;20998;-69
2021/08/07 11:14:26;;;;;;;2.85;0.60;;;24.00;91.30;;;;;;5045058;28;21995;-69
2021/08/07 11:17:07;;;;;;;2.60;0.90;;;24.10;91.40;;;;;;5039571;28;20041;-69
2021/08/07 11:19:48;;;;;;;3.38;0.80;;;24.10;91.00;;;;;;5042463;28;20521;-69
2021/08/07 11:22:18;;;;;;;5.13;1.42;;;24.10;87.70;;;;;;5041039;28;20167;-69
2021/08/07 11:24:43;;;;;;;1.98;0.63;;;24.20;90.50;;;;;;5039486;28;20040;-69
2021/08/07 11:27:12;;;;;;;2.35;0.65;;;24.50;91.90;;;;;;5041503;28;20475;-69
2021/08/07 11:30:17;;;;;;;3.38;0.50;;;24.60;92.40;;;;;;5042811;28;20036;-69
2021/08/07 11:33:04;;;;;;;4.18;0.70;;;24.80;92.00;;;;;;5042297;28;20487;-69
2021/08/07 11:35:38;;;;;;;4.00;0.57;;;24.80;86.00;;;;;;5041520;28;20045;-69
2021/08/07 11:38:08;;;;;;;3.70;0.50;;;24.50;87.40;;;;;;5041780;28;20413;-69
2021/08/07 11:40:38;;;;;;;5.43;0.73;;;24.00;87.00;;;;;;5040595;28;20076;-69
2021/08/07 11:43:11;;;;;;;9.95;0.98;;;23.60;88.90;;;;;;5041373;28;20122;-69
2021/08/07 11:45:38;;;;;;;7.60;1.48;;;23.40;91.90;;;;;;5042336;28;20037;-69
2021/08/07 11:48:04;;;;;;;6.22;0.70;;;23.00;95.70;;;;;;5039713;28;20072;-69
2021/08/07 11:50:29;;;;;;;2.38;0.63;;;22.90;98.20;;;;;;5042238;28;20068;-69
2021/08/07 11:52:55;;;;;;;4.03;0.70;;;22.70;98.80;;;;;;5043331;28;20120;-69
2021/08/07 11:55:21;;;;;;;0.98;0.50;;;22.70;99.90;;;;;;5040579;28;20037;-69
2021/08/07 11:57:47;;;;;;;4.15;0.70;;;22.70;99.90;;;;;;5039619;28;20647;-69
2021/08/07 12:00:25;;;;;;;2.47;0.52;;;22.70;99.90;;;;;;5041701;28;20050;-69
2021/08/07 12:02:59;;;;;;;3.30;0.50;;;22.60;98.20;;;;;;5039785;28;20033;-69
2021/08/07 12:05:25;;;;;;;1.98;0.77;;;22.60;98.60;;;;;;5040605;28;20041;-69
2021/08/07 12:08:21;;;;;;;3.80;0.63;;;22.50;99.60;;;;;;5042663;28;20045;-69
2021/08/07 12:10:59;;;;;;;4.30;1.02;;;22.30;99.50;;;;;;5032787;28;20049;-69
2021/08/07 12:13:32;;;;;;;2.45;0.50;;;22.20;99.40;;;;;;5037899;28;20050;-69
2021/08/07 12:16:02;;;;;;;2.35;0.50;;;22.20;98.40;;;;;;5042797;28;20048;-69
2021/08/07 12:18:51;;;;;;;3.88;0.75;;;22.30;98.80;;;;;;5043444;28;20056;-69
2021/08/07 12:21:23;;;;;;;4.10;0.63;;;22.60;97.90;;;;;;5042066;28;20087;-69
2021/08/07 12:23:51;;;;;;;2.45;1.02;;;22.80;98.40;;;;;;5043189;28;20081;-69
2021/08/07 12:26:18;;;;;;;2.92;0.60;;;23.10;95.20;;;;;;5039109;28;20091;-69
2021/08/07 12:28:45;;;;;;;5.95;0.90;;;23.40;95.70;;;;;;5040026;28;20045;-70
2021/08/07 12:31:11;;;;;;;2.83;0.90;;;23.70;93.70;;;;;;5040308;28;20048;-70
2021/08/07 12:33:40;;;;;;;2.33;0.60;;;23.80;92.20;;;;;;5038409;28;20037;-69
2021/08/07 12:36:14;;;;;;;1.95;0.50;;;24.00;93.40;;;;;;5040385;28;20056;-69
2021/08/07 12:38:51;;;;;;;4.10;0.75;;;24.10;92.80;;;;;;5038117;28;20654;-70
2021/08/07 12:41:22;;;;;;;2.90;0.68;;;24.30;94.30;;;;;;5037674;28;20045;-69
2021/08/07 12:43:49;;;;;;;4.90;0.80;;;24.30;94.20;;;;;;5037717;28;20033;-69
2021/08/07 12:46:20;;;;;;;2.28;0.60;;;24.00;91.00;;;;;;5039072;28;20037;-69
2021/08/07 12:48:45;;;;;;;3.08;0.55;;;23.80;92.70;;;;;;5039098;28;20139;-69
2021/08/07 12:51:18;;;;;;;4.57;0.60;;;23.70;91.40;;;;;;5038948;28;20176;-69
2021/08/07 12:53:48;;;;;;;2.38;0.47;;;23.50;91.70;;;;;;5044871;28;20064;-69
2021/08/07 12:56:15;;;;;;;5.55;0.60;;;23.20;90.10;;;;;;5041341;28;20458;-69